Argusville, North Dakota
Current Conditions -  °F | °C
As of 5:53 AM on Thursday 27 Nov 2014 (Local Time) from KFAR Reporting Station
Clear Clear  
Wind Chill: -12°   Ceiling: Unl
Heat Index: -12°   Visibility: 8mi
Dew Point: -17°   Wind: 3mph
Humidity: 78%   Direction: 220°SW
Pressure: 30.54"   Gusts: NA
Location:  47.05°N, 96.93°W
Report Text: KFAR 271153Z 22003KT 8SM CLR M24/M27 A3054 RMK AO2 SLP372 I6000 T12441272 11228 21250 58007
Loading
Personal Weather Stations






























Interactive Weather Map New forecast layout! Learn more

10-Day Weather Forecast

Advertisements
Track Severe Weather on mobile